Time;durP1;ratioP1;P1;durP2;ratioP2;P2;SDS_P1;SDS_P2;PMS_P1;PMS_P2;Temp;Humidity;BMP_temperature;BMP_pressure;BME280_temperature;BME280_humidity;BME280_pressure;Samples;Min_cycle;Max_cycle;Signal;HPM_P1;HPM_P2
2021/05/19 00:01:41;;;;;;;20.92;7.82;;;;;;;;;;5088953;28;20032;-67
2021/05/19 00:04:08;;;;;;;18.90;6.65;;;;;;;;;;5086102;28;20047;-67
2021/05/19 00:06:35;;;;;;;21.58;7.28;;;;;;;;;;5087900;28;20020;-67
2021/05/19 00:09:01;;;;;;;21.10;8.07;;;;;;;;;;5089257;28;20032;-66
2021/05/19 00:11:27;;;;;;;21.65;6.40;;;;;;;;;;5089516;28;20043;-67
2021/05/19 00:13:53;;;;;;;20.17;7.75;;;;;;;;;;5068003;28;21193;-66
2021/05/19 00:16:20;;;;;;;20.75;6.90;;;;;;;;;;5071531;28;20032;-66
2021/05/19 00:18:46;;;;;;;17.38;7.03;;;;;;;;;;5086754;28;20479;-66
2021/05/19 00:21:12;;;;;;;25.23;7.38;;;;;;;;;;5082973;28;20024;-67
2021/05/19 00:23:38;;;;;;;21.63;6.40;;;;;;;;;;5071164;28;20495;-67
2021/05/19 00:26:04;;;;;;;27.25;6.28;;;;;;;;;;5091362;28;20031;-66
2021/05/19 00:28:31;;;;;;;22.45;6.13;;;;;;;;;;5087073;28;20028;-66
2021/05/19 00:31:00;;;;;;;21.38;5.32;;;;;;;;;;5091189;28;20126;-67
2021/05/19 00:33:26;;;;;;;18.27;5.72;;;;;;;;;;5087285;28;20097;-66
2021/05/19 00:35:52;;;;;;;22.08;6.82;;;;;;;;;;5087382;28;20059;-67
2021/05/19 00:38:18;;;;;;;22.15;5.40;;;;;;;;;;5088079;28;20071;-67
2021/05/19 00:40:45;;;;;;;20.08;7.22;;;;;;;;;;5084571;28;20044;-67
2021/05/19 00:43:11;;;;;;;22.95;6.15;;;;;;;;;;5086884;28;20028;-67
2021/05/19 00:45:37;;;;;;;17.63;5.15;;;;;;;;;;5064798;28;20024;-67
2021/05/19 00:48:04;;;;;;;22.38;5.97;;;;;;;;;;5087122;28;20024;-67
2021/05/19 00:50:31;;;;;;;27.02;7.63;;;;;;;;;;5086979;28;20031;-67
2021/05/19 00:52:57;;;;;;;21.27;7.22;;;;;;;;;;5086579;28;20031;-67
2021/05/19 00:55:24;;;;;;;25.58;7.22;;;;;;;;;;5089757;28;20051;-67
2021/05/19 00:57:51;;;;;;;24.95;6.70;;;;;;;;;;5081710;28;20502;-67
2021/05/19 01:00:18;;;;;;;21.33;6.22;;;;;;;;;;5078660;28;20073;-67
2021/05/19 01:02:44;;;;;;;23.10;6.50;;;;;;;;;;5082786;28;20047;-67
2021/05/19 01:05:18;;;;;;;24.02;6.18;;;;;;;;;;5083366;28;20061;-67
2021/05/19 01:10:29;;;;;;;18.35;6.43;;;;;;;;;;5086897;28;20026;-67
2021/05/19 01:12:55;;;;;;;21.58;7.25;;;;;;;;;;5070702;28;20028;-67
2021/05/19 01:15:21;;;;;;;19.45;6.38;;;;;;;;;;5086931;28;20032;-67
2021/05/19 01:17:48;;;;;;;21.73;6.65;;;;;;;;;;5086591;28;20052;-67
2021/05/19 01:20:14;;;;;;;18.90;6.97;;;;;;;;;;5088908;28;20097;-67
2021/05/19 01:22:42;;;;;;;21.42;6.55;;;;;;;;;;5086299;28;20028;-67
2021/05/19 01:25:08;;;;;;;26.80;7.30;;;;;;;;;;5081951;28;20020;-67
2021/05/19 01:27:34;;;;;;;21.33;8.27;;;;;;;;;;5085333;28;20605;-67
2021/05/19 01:30:01;;;;;;;19.55;6.88;;;;;;;;;;5090515;28;20040;-67
2021/05/19 01:32:27;;;;;;;21.55;7.57;;;;;;;;;;5088946;28;20024;-67
2021/05/19 01:34:53;;;;;;;26.30;8.63;;;;;;;;;;5087485;28;20031;-67
2021/05/19 01:37:19;;;;;;;32.75;8.80;;;;;;;;;;5088015;28;20042;-67
2021/05/19 01:39:46;;;;;;;24.67;7.60;;;;;;;;;;5086264;28;20455;-67
2021/05/19 01:42:12;;;;;;;34.90;9.65;;;;;;;;;;5080586;28;20029;-67
2021/05/19 01:44:39;;;;;;;22.45;8.25;;;;;;;;;;5089852;28;20031;-67
2021/05/19 01:47:07;;;;;;;30.02;10.70;;;;;;;;;;5092841;28;20032;-67
2021/05/19 01:49:37;;;;;;;39.35;10.70;;;;;;;;;;5092178;28;20028;-67
2021/05/19 01:52:04;;;;;;;24.80;9.85;;;;;;;;;;5093065;28;20055;-67
2021/05/19 01:54:31;;;;;;;26.67;10.82;;;;;;;;;;5093381;28;20057;-67
2021/05/19 01:56:57;;;;;;;23.65;11.25;;;;;;;;;;5082068;28;20028;-67
2021/05/19 01:59:23;;;;;;;30.48;11.50;;;;;;;;;;5088256;28;20043;-67
2021/05/19 02:01:49;;;;;;;29.63;12.25;;;;;;;;;;5072031;28;20039;-67
2021/05/19 02:04:16;;;;;;;34.33;12.85;;;;;;;;;;5091569;28;20062;-67
2021/05/19 02:06:43;;;;;;;32.33;13.05;;;;;;;;;;5091491;28;20035;-67
2021/05/19 02:09:09;;;;;;;28.83;12.73;;;;;;;;;;5091171;28;20031;-67
2021/05/19 02:11:35;;;;;;;26.02;12.30;;;;;;;;;;5090427;28;20032;-67
2021/05/19 02:14:02;;;;;;;30.50;12.93;;;;;;;;;;5092134;28;20036;-67
2021/05/19 02:16:28;;;;;;;29.02;12.68;;;;;;;;;;5071021;28;20119;-67
2021/05/19 02:18:54;;;;;;;35.95;14.18;;;;;;;;;;5088006;28;20024;-66
2021/05/19 02:21:20;;;;;;;32.67;12.05;;;;;;;;;;5092950;28;20085;-67
2021/05/19 02:23:46;;;;;;;33.38;12.40;;;;;;;;;;5073958;28;20020;-67
2021/05/19 02:26:12;;;;;;;30.27;12.20;;;;;;;;;;5092490;28;20024;-67
2021/05/19 02:28:38;;;;;;;32.63;12.15;;;;;;;;;;5088131;28;20032;-67
2021/05/19 02:31:04;;;;;;;28.40;12.43;;;;;;;;;;5092533;28;20028;-67
2021/05/19 02:33:30;;;;;;;26.13;12.00;;;;;;;;;;5087139;28;20028;-67
2021/05/19 02:35:57;;;;;;;33.33;12.80;;;;;;;;;;5092480;28;20122;-67
2021/05/19 02:38:23;;;;;;;38.28;11.93;;;;;;;;;;5090909;28;20024;-67
2021/05/19 02:40:49;;;;;;;32.53;11.23;;;;;;;;;;5092379;28;20016;-67
2021/05/19 02:43:15;;;;;;;28.38;11.93;;;;;;;;;;5089387;28;20521;-67
2021/05/19 02:45:41;;;;;;;35.17;13.50;;;;;;;;;;5082810;28;20035;-66
2021/05/19 02:48:07;;;;;;;32.67;11.50;;;;;;;;;;5090024;28;20028;-67
2021/05/19 02:50:33;;;;;;;30.98;13.43;;;;;;;;;;5091353;28;20028;-66
2021/05/19 02:52:59;;;;;;;36.95;12.48;;;;;;;;;;5075335;28;20040;-67
2021/05/19 02:55:26;;;;;;;30.20;12.60;;;;;;;;;;5089867;28;20063;-66
2021/05/19 02:57:52;;;;;;;32.47;13.00;;;;;;;;;;5075846;28;20113;-67
2021/05/19 03:00:18;;;;;;;30.38;13.43;;;;;;;;;;5085879;28;20012;-66
2021/05/19 03:02:44;;;;;;;29.85;12.75;;;;;;;;;;5085224;28;20036;-67
2021/05/19 03:05:10;;;;;;;36.50;13.27;;;;;;;;;;5070040;28;20028;-67
2021/05/19 03:07:36;;;;;;;33.47;12.38;;;;;;;;;;5065344;28;20024;-66
2021/05/19 03:10:02;;;;;;;37.70;12.18;;;;;;;;;;5087558;28;20777;-67
2021/05/19 03:12:28;;;;;;;32.53;11.98;;;;;;;;;;5087673;28;20024;-67
2021/05/19 03:14:55;;;;;;;32.58;11.82;;;;;;;;;;5068755;28;20523;-67
2021/05/19 03:17:22;;;;;;;42.78;13.23;;;;;;;;;;5088485;28;20110;-67
2021/05/19 03:19:48;;;;;;;29.27;11.57;;;;;;;;;;5083815;28;20024;-67
2021/05/19 03:22:14;;;;;;;34.45;11.77;;;;;;;;;;5091485;28;20021;-66
2021/05/19 03:24:41;;;;;;;32.30;13.32;;;;;;;;;;5072555;28;20020;-67
2021/05/19 03:27:07;;;;;;;30.75;12.25;;;;;;;;;;5072726;28;20131;-66
2021/05/19 03:29:33;;;;;;;47.08;14.10;;;;;;;;;;5087825;28;20040;-66
2021/05/19 03:31:59;;;;;;;31.67;10.93;;;;;;;;;;5088612;28;20028;-67
2021/05/19 03:34:25;;;;;;;39.15;13.40;;;;;;;;;;5061964;28;20100;-67
2021/05/19 03:36:51;;;;;;;35.00;12.98;;;;;;;;;;5090440;28;20047;-67
2021/05/19 03:39:18;;;;;;;33.28;13.52;;;;;;;;;;5084146;28;20024;-67
2021/05/19 03:41:44;;;;;;;41.67;12.40;;;;;;;;;;5089024;28;20041;-67
2021/05/19 03:44:10;;;;;;;30.23;12.48;;;;;;;;;;5090613;28;20085;-66
2021/05/19 03:46:36;;;;;;;33.15;12.60;;;;;;;;;;5080050;28;20024;-69
2021/05/19 03:49:03;;;;;;;28.40;12.27;;;;;;;;;;5090585;28;20051;-66
2021/05/19 03:51:30;;;;;;;36.10;11.32;;;;;;;;;;5089631;28;20037;-66
2021/05/19 03:53:56;;;;;;;31.35;11.60;;;;;;;;;;5072730;28;20028;-66
2021/05/19 03:56:23;;;;;;;29.02;12.55;;;;;;;;;;5086620;28;20024;-66
2021/05/19 03:58:49;;;;;;;31.52;12.27;;;;;;;;;;5089404;28;20100;-66
2021/05/19 04:01:15;;;;;;;30.20;11.98;;;;;;;;;;5086467;28;20024;-67
2021/05/19 04:03:41;;;;;;;31.73;11.82;;;;;;;;;;5089527;28;20048;-66
2021/05/19 04:06:07;;;;;;;29.95;11.50;;;;;;;;;;5083696;28;20028;-66
2021/05/19 04:08:35;;;;;;;35.83;12.82;;;;;;;;;;5086413;28;20075;-66
2021/05/19 04:11:01;;;;;;;40.45;14.25;;;;;;;;;;5090738;28;20040;-66
2021/05/19 04:13:27;;;;;;;28.73;13.35;;;;;;;;;;5090108;28;20038;-66
2021/05/19 04:15:53;;;;;;;38.92;14.88;;;;;;;;;;5088548;28;20032;-66
2021/05/19 04:18:21;;;;;;;33.53;15.23;;;;;;;;;;5088191;28;20113;-66
2021/05/19 04:20:47;;;;;;;31.00;13.50;;;;;;;;;;5090047;28;20023;-66
2021/05/19 04:23:13;;;;;;;33.20;13.27;;;;;;;;;;5089341;28;20029;-68
2021/05/19 04:25:40;;;;;;;36.88;14.00;;;;;;;;;;5083505;28;20028;-66
2021/05/19 04:28:06;;;;;;;34.20;12.85;;;;;;;;;;5068138;28;20028;-66
2021/05/19 04:30:33;;;;;;;39.90;14.07;;;;;;;;;;5088028;28;20046;-67
2021/05/19 04:32:59;;;;;;;33.08;13.27;;;;;;;;;;5089871;28;20032;-66
2021/05/19 04:35:25;;;;;;;37.10;13.57;;;;;;;;;;5091135;28;20028;-67
2021/05/19 04:37:51;;;;;;;36.25;13.48;;;;;;;;;;5082484;28;20035;-66
2021/05/19 04:40:17;;;;;;;40.50;15.18;;;;;;;;;;5088235;28;20036;-66
2021/05/19 04:42:43;;;;;;;32.05;13.63;;;;;;;;;;5088405;28;20050;-66
2021/05/19 04:45:10;;;;;;;44.65;17.25;;;;;;;;;;5082821;28;20078;-67
2021/05/19 04:47:36;;;;;;;36.08;13.23;;;;;;;;;;5084951;28;20600;-67
2021/05/19 04:50:03;;;;;;;35.83;14.32;;;;;;;;;;5087631;28;20031;-67
2021/05/19 04:52:29;;;;;;;35.90;14.07;;;;;;;;;;5086989;28;20063;-67
2021/05/19 04:54:57;;;;;;;27.83;12.90;;;;;;;;;;5089256;28;20085;-67
2021/05/19 04:57:23;;;;;;;46.28;14.43;;;;;;;;;;5067186;28;20024;-66
2021/05/19 04:59:49;;;;;;;33.88;14.43;;;;;;;;;;5087668;28;20055;-67
2021/05/19 05:02:15;;;;;;;44.55;13.98;;;;;;;;;;5088096;28;20075;-66
2021/05/19 05:04:41;;;;;;;36.13;14.15;;;;;;;;;;5084707;28;20065;-67
2021/05/19 05:07:07;;;;;;;33.40;12.80;;;;;;;;;;5087899;28;20016;-66
2021/05/19 05:09:33;;;;;;;35.65;14.45;;;;;;;;;;5086735;28;20076;-66
2021/05/19 05:11:59;;;;;;;32.70;12.80;;;;;;;;;;5086630;28;20465;-66
2021/05/19 05:14:26;;;;;;;31.38;12.68;;;;;;;;;;5086594;28;20133;-66
2021/05/19 05:16:52;;;;;;;35.58;12.95;;;;;;;;;;5087703;28;20016;-66
2021/05/19 05:19:18;;;;;;;35.13;12.77;;;;;;;;;;5090555;28;20449;-65
2021/05/19 05:21:44;;;;;;;30.27;11.60;;;;;;;;;;5094971;28;20403;-66
2021/05/19 05:24:10;;;;;;;33.33;12.90;;;;;;;;;;5088349;28;20035;-65
2021/05/19 05:26:36;;;;;;;33.83;12.38;;;;;;;;;;5097036;28;20028;-66
2021/05/19 05:29:03;;;;;;;26.17;12.00;;;;;;;;;;5096070;28;20031;-66
2021/05/19 05:31:29;;;;;;;35.97;13.85;;;;;;;;;;5092857;28;20093;-66
2021/05/19 05:33:55;;;;;;;36.17;12.68;;;;;;;;;;5088833;28;20043;-66
2021/05/19 05:36:21;;;;;;;31.33;12.48;;;;;;;;;;5072336;28;20115;-66
2021/05/19 05:38:47;;;;;;;43.05;13.50;;;;;;;;;;5090078;28;20065;-66
2021/05/19 05:41:13;;;;;;;29.02;12.85;;;;;;;;;;5087724;28;20044;-66
2021/05/19 05:43:39;;;;;;;30.52;12.10;;;;;;;;;;5093247;28;20016;-66
2021/05/19 05:46:05;;;;;;;35.20;12.77;;;;;;;;;;5088048;28;20039;-66
2021/05/19 05:48:31;;;;;;;32.90;12.23;;;;;;;;;;5071587;28;20039;-66
2021/05/19 05:50:59;;;;;;;31.25;12.70;;;;;;;;;;5090959;28;20173;-66
2021/05/19 05:53:26;;;;;;;35.38;13.27;;;;;;;;;;5089521;28;20150;-66
2021/05/19 05:55:52;;;;;;;31.10;12.50;;;;;;;;;;5081111;28;20031;-66
2021/05/19 05:58:18;;;;;;;29.05;11.88;;;;;;;;;;5087611;28;20016;-68
2021/05/19 06:00:44;;;;;;;39.80;13.88;;;;;;;;;;5088804;28;20039;-69
2021/05/19 06:03:10;;;;;;;32.75;13.23;;;;;;;;;;5066236;28;20503;-72
2021/05/19 06:05:36;;;;;;;34.17;14.68;;;;;;;;;;5086408;28;20028;-68
2021/05/19 06:08:04;;;;;;;34.65;16.13;;;;;;;;;;5087368;28;20042;-67
2021/05/19 06:10:30;;;;;;;33.17;15.35;;;;;;;;;;5087896;28;20096;-67
2021/05/19 06:12:56;;;;;;;34.63;13.88;;;;;;;;;;5086648;28;20016;-67
2021/05/19 06:15:22;;;;;;;25.20;12.68;;;;;;;;;;5085811;28;20025;-66
2021/05/19 06:17:48;;;;;;;30.98;12.70;;;;;;;;;;5085421;28;20108;-66
2021/05/19 06:20:15;;;;;;;31.42;13.35;;;;;;;;;;5085120;28;20028;-66
2021/05/19 06:22:41;;;;;;;35.20;13.70;;;;;;;;;;5071340;28;20036;-66
2021/05/19 06:25:08;;;;;;;24.58;12.18;;;;;;;;;;5085227;28;20024;-66
2021/05/19 06:27:34;;;;;;;39.22;13.75;;;;;;;;;;5086451;28;20028;-67
2021/05/19 06:30:00;;;;;;;33.75;13.50;;;;;;;;;;5083546;28;20495;-66
2021/05/19 06:32:26;;;;;;;35.97;14.43;;;;;;;;;;5072411;28;20047;-66
2021/05/19 06:34:53;;;;;;;29.08;15.52;;;;;;;;;;5072788;28;20017;-66
2021/05/19 06:37:19;;;;;;;34.65;15.20;;;;;;;;;;5086045;28;20510;-66
2021/05/19 06:39:45;;;;;;;39.10;15.52;;;;;;;;;;5086732;28;20126;-67
2021/05/19 06:42:11;;;;;;;34.88;14.85;;;;;;;;;;5081741;28;20033;-67
2021/05/19 06:44:37;;;;;;;34.55;16.00;;;;;;;;;;5072782;28;20020;-66
2021/05/19 06:47:04;;;;;;;34.83;13.55;;;;;;;;;;5078971;28;20028;-65
2021/05/19 06:49:30;;;;;;;37.28;12.88;;;;;;;;;;5090643;28;20111;-65
2021/05/19 06:51:57;;;;;;;25.23;13.10;;;;;;;;;;5090853;28;20025;-66
2021/05/19 06:54:23;;;;;;;31.85;14.40;;;;;;;;;;5082428;28;20159;-66
2021/05/19 06:56:49;;;;;;;31.35;13.27;;;;;;;;;;5085962;28;20020;-67
2021/05/19 06:59:17;;;;;;;30.60;13.10;;;;;;;;;;5090353;28;20032;-66
2021/05/19 07:01:43;;;;;;;32.20;13.88;;;;;;;;;;5092278;28;20023;-67
2021/05/19 07:04:10;;;;;;;33.63;13.48;;;;;;;;;;5068759;28;20043;-67
2021/05/19 07:06:36;;;;;;;34.47;13.20;;;;;;;;;;5090335;28;20042;-67
2021/05/19 07:09:02;;;;;;;25.33;13.57;;;;;;;;;;5080504;28;20020;-67
2021/05/19 07:11:28;;;;;;;34.00;13.90;;;;;;;;;;5072478;28;20028;-67
2021/05/19 07:13:56;;;;;;;34.25;14.75;;;;;;;;;;5084171;28;20598;-67
2021/05/19 07:16:24;;;;;;;37.58;12.38;;;;;;;;;;5065544;28;20024;-67
2021/05/19 07:18:56;;;;;;;28.42;7.85;;;;;;;;;;5084445;28;20052;-66
2021/05/19 07:21:22;;;;;;;23.13;8.35;;;;;;;;;;5083828;28;20442;-66
2021/05/19 07:23:48;;;;;;;41.03;8.45;;;;;;;;;;5084176;28;20133;-66
2021/05/19 07:26:14;;;;;;;34.88;8.85;;;;;;;;;;5086458;28;20496;-73
2021/05/19 07:28:41;;;;;;;32.78;9.05;;;;;;;;;;5083625;28;20024;-70
2021/05/19 07:31:07;;;;;;;29.10;9.63;;;;;;;;;;5091888;28;20200;-73
2021/05/19 07:33:33;;;;;;;16.05;5.93;;;;;;;;;;5086554;28;20044;-73
2021/05/19 07:35:59;;;;;;;22.20;5.47;;;;;;;;;;5060966;28;20097;-74
2021/05/19 07:38:26;;;;;;;21.55;6.57;;;;;;;;;;5080667;28;20020;-74
2021/05/19 07:40:52;;;;;;;16.33;5.25;;;;;;;;;;5059829;28;20024;-73
2021/05/19 07:43:19;;;;;;;15.35;4.70;;;;;;;;;;5083278;28;20493;-69
2021/05/19 07:45:45;;;;;;;19.73;4.28;;;;;;;;;;5082050;28;20028;-68
2021/05/19 07:48:11;;;;;;;23.58;4.93;;;;;;;;;;5084462;28;20020;-68
2021/05/19 07:50:37;;;;;;;26.67;7.25;;;;;;;;;;5079055;28;20026;-69
2021/05/19 07:53:05;;;;;;;20.92;4.90;;;;;;;;;;5085242;28;20013;-70
2021/05/19 07:55:48;;;;;;;19.50;5.15;;;;;;;;;;5086208;28;20369;-69
2021/05/19 07:58:51;;;;;;;29.77;5.20;;;;;;;;;;5079303;28;20028;-72
2021/05/19 08:03:33;;;;;;;15.20;5.25;;;;;;;;;;5079521;28;20063;-69
2021/05/19 08:05:59;;;;;;;19.55;5.68;;;;;;;;;;5091146;28;20078;-70
2021/05/19 08:08:25;;;;;;;11.90;5.45;;;;;;;;;;5086113;28;20028;-73
2021/05/19 08:10:51;;;;;;;21.52;6.32;;;;;;;;;;5079927;28;20496;-74
2021/05/19 08:13:17;;;;;;;18.20;6.50;;;;;;;;;;5072273;28;20399;-72
2021/05/19 08:15:44;;;;;;;19.35;6.70;;;;;;;;;;5079094;28;20028;-75
2021/05/19 08:18:10;;;;;;;20.92;7.25;;;;;;;;;;5081171;28;20172;-70
2021/05/19 08:20:37;;;;;;;16.35;5.72;;;;;;;;;;5090327;28;20028;-68
2021/05/19 08:23:03;;;;;;;16.05;3.60;;;;;;;;;;5083686;28;20035;-69
2021/05/19 08:25:29;;;;;;;9.50;3.00;;;;;;;;;;5081362;28;20031;-68
2021/05/19 08:27:56;;;;;;;7.13;2.22;;;;;;;;;;5066234;28;20037;-67
2021/05/19 08:30:22;;;;;;;6.00;1.70;;;;;;;;;;5087215;28;20024;-68
2021/05/19 08:32:48;;;;;;;9.05;2.17;;;;;;;;;;5066278;28;20340;-68
2021/05/19 08:35:14;;;;;;;8.30;1.73;;;;;;;;;;5087670;28;20032;-68
2021/05/19 08:37:41;;;;;;;10.52;1.92;;;;;;;;;;5087847;28;20031;-68
2021/05/19 08:40:07;;;;;;;11.45;2.03;;;;;;;;;;5089552;28;20032;-68
2021/05/19 08:42:34;;;;;;;14.95;2.53;;;;;;;;;;5076265;28;20032;-68
2021/05/19 08:45:00;;;;;;;9.50;2.40;;;;;;;;;;5075073;28;20024;-67
2021/05/19 08:47:27;;;;;;;11.77;2.10;;;;;;;;;;5084982;28;20050;-68
2021/05/19 08:49:53;;;;;;;8.52;2.58;;;;;;;;;;5087085;28;20119;-68
2021/05/19 08:52:20;;;;;;;18.10;2.67;;;;;;;;;;5089399;28;20035;-68
2021/05/19 08:54:48;;;;;;;11.95;2.60;;;;;;;;;;5065554;28;20050;-68
2021/05/19 08:57:14;;;;;;;8.10;2.40;;;;;;;;;;5069390;28;20086;-68
2021/05/19 08:59:40;;;;;;;8.60;2.55;;;;;;;;;;5081518;28;20024;-68
2021/05/19 09:02:11;;;;;;;12.70;2.78;;;;;;;;;;5077019;28;20043;-68
2021/05/19 09:04:37;;;;;;;20.08;3.88;;;;;;;;;;5077185;28;20027;-68
2021/05/19 09:07:04;;;;;;;8.25;2.63;;;;;;;;;;5070848;28;20044;-68
2021/05/19 09:09:31;;;;;;;14.20;4.50;;;;;;;;;;5086880;28;20507;-68
2021/05/19 09:12:00;;;;;;;12.23;2.75;;;;;;;;;;5072267;28;20048;-68
2021/05/19 09:14:27;;;;;;;8.35;2.40;;;;;;;;;;5084752;28;20048;-68
2021/05/19 09:16:53;;;;;;;11.93;2.63;;;;;;;;;;5083308;28;20032;-68
2021/05/19 09:19:33;;;;;;;7.28;2.03;;;;;;;;;;5064301;28;20037;-68
2021/05/19 09:21:59;;;;;;;12.93;2.33;;;;;;;;;;5086062;28;20275;-68
2021/05/19 09:24:32;;;;;;;8.07;1.65;;;;;;;;;;5079731;28;20044;-68
2021/05/19 09:26:59;;;;;;;15.48;3.40;;;;;;;;;;5085353;28;20039;-67
2021/05/19 09:29:26;;;;;;;13.00;1.90;;;;;;;;;;5083983;28;20445;-67
2021/05/19 09:31:52;;;;;;;9.68;1.90;;;;;;;;;;5089128;28;20024;-67
2021/05/19 09:34:29;;;;;;;10.10;1.70;;;;;;;;;;5085768;28;20089;-68
2021/05/19 09:37:12;;;;;;;10.05;2.25;;;;;;;;;;5084234;28;20384;-67
2021/05/19 09:39:46;;;;;;;6.53;1.40;;;;;;;;;;5085396;28;20024;-68
2021/05/19 09:42:12;;;;;;;9.90;1.58;;;;;;;;;;5088137;28;20020;-68
2021/05/19 09:44:38;;;;;;;10.77;1.65;;;;;;;;;;5084009;28;20029;-67
2021/05/19 09:47:04;;;;;;;7.75;1.40;;;;;;;;;;5078068;28;20082;-67
2021/05/19 09:49:30;;;;;;;5.72;1.23;;;;;;;;;;5082700;28;20024;-68
2021/05/19 09:51:58;;;;;;;7.15;1.40;;;;;;;;;;5085437;28;20023;-68
2021/05/19 09:54:24;;;;;;;7.95;1.25;;;;;;;;;;5083477;28;20066;-68
2021/05/19 09:56:57;;;;;;;4.68;1.10;;;;;;;;;;5079658;28;20044;-68
2021/05/19 09:59:23;;;;;;;11.25;1.55;;;;;;;;;;5081257;28;20030;-67
2021/05/19 10:01:50;;;;;;;4.63;1.10;;;;;;;;;;5081667;28;20016;-67
2021/05/19 10:04:18;;;;;;;15.23;1.15;;;;;;;;;;5063123;28;20044;-66
2021/05/19 10:06:44;;;;;;;5.88;1.35;;;;;;;;;;5082561;28;20020;-66
2021/05/19 10:09:10;;;;;;;8.80;1.65;;;;;;;;;;5086021;28;20334;-66
2021/05/19 10:11:36;;;;;;;3.80;0.98;;;;;;;;;;5090439;28;20032;-67
2021/05/19 10:14:03;;;;;;;7.93;0.93;;;;;;;;;;5090901;28;20115;-66
2021/05/19 10:16:30;;;;;;;8.35;1.35;;;;;;;;;;5092284;28;20031;-67
2021/05/19 10:18:57;;;;;;;8.68;1.40;;;;;;;;;;5066528;28;20036;-67
2021/05/19 10:21:27;;;;;;;10.10;1.33;;;;;;;;;;5073498;28;20031;-67
2021/05/19 10:24:05;;;;;;;6.13;1.23;;;;;;;;;;5087950;28;20028;-67
2021/05/19 10:26:33;;;;;;;7.43;1.33;;;;;;;;;;5085613;28;20024;-67
2021/05/19 10:29:00;;;;;;;6.72;0.90;;;;;;;;;;5085587;28;20128;-67
2021/05/19 10:31:27;;;;;;;6.40;1.00;;;;;;;;;;5093691;28;20021;-67
2021/05/19 10:33:54;;;;;;;6.95;1.15;;;;;;;;;;5088315;28;20074;-67
2021/05/19 10:36:33;;;;;;;7.25;1.25;;;;;;;;;;5087158;28;20078;-67
2021/05/19 10:39:11;;;;;;;4.10;1.10;;;;;;;;;;5071817;28;20095;-67
2021/05/19 10:41:44;;;;;;;8.00;1.13;;;;;;;;;;5096227;28;20524;-66
2021/05/19 10:44:11;;;;;;;8.93;1.27;;;;;;;;;;5086985;28;20032;-66
2021/05/19 10:46:47;;;;;;;5.00;1.27;;;;;;;;;;5087322;28;20024;-66
2021/05/19 10:49:13;;;;;;;6.95;2.15;;;;;;;;;;5092672;28;20388;-66
2021/05/19 10:59:59;;;;;;;7.13;1.33;;;;;;;;;;5083675;28;20024;-66
2021/05/19 11:02:25;;;;;;;4.10;0.70;;;;;;;;;;5086760;28;20044;-65
2021/05/19 11:05:23;;;;;;;7.93;0.80;;;;;;;;;;5087972;28;20028;-65
2021/05/19 11:08:08;;;;;;;2.05;0.50;;;;;;;;;;5041903;28;20560;-65
2021/05/19 11:10:34;;;;;;;1.13;0.50;;;;;;;;;;5080812;28;20289;-65
2021/05/19 11:13:00;;;;;;;5.90;0.82;;;;;;;;;;5089723;28;20182;-66
2021/05/19 11:15:43;;;;;;;4.28;1.00;;;;;;;;;;5086562;28;20023;-65
2021/05/19 11:21:14;;;;;;;2.60;0.60;;;;;;;;;;5052433;28;20574;-65
2021/05/19 11:23:40;;;;;;;2.72;0.43;;;;;;;;;;5089914;28;20050;-64
2021/05/19 11:26:12;;;;;;;2.30;0.63;;;;;;;;;;5090710;28;20553;-64
2021/05/19 11:28:39;;;;;;;6.20;0.77;;;;;;;;;;5069421;28;20064;-65
2021/05/19 11:31:16;;;;;;;5.03;0.70;;;;;;;;;;5091396;28;20039;-64
2021/05/19 11:33:51;;;;;;;2.97;0.50;;;;;;;;;;5086909;28;20024;-64
2021/05/19 11:36:29;;;;;;;6.05;0.70;;;;;;;;;;5083056;28;20564;-64
2021/05/19 11:38:56;;;;;;;4.25;0.60;;;;;;;;;;5084056;28;20020;-64
2021/05/19 11:41:22;;;;;;;9.70;0.80;;;;;;;;;;5073143;28;20037;-64
2021/05/19 11:43:48;;;;;;;5.78;0.95;;;;;;;;;;5090596;28;20047;-64
2021/05/19 11:46:14;;;;;;;6.50;1.00;;;;;;;;;;5087410;28;20076;-64
2021/05/19 11:48:40;;;;;;;6.05;0.93;;;;;;;;;;5089241;28;20449;-64
2021/05/19 11:51:19;;;;;;;9.02;1.60;;;;;;;;;;5090239;28;20067;-64
2021/05/19 11:53:59;;;;;;;7.15;1.08;;;;;;;;;;5090552;28;20445;-64
2021/05/19 11:56:40;;;;;;;7.38;1.30;;;;;;;;;;5085117;28;20115;-64
2021/05/19 11:59:13;;;;;;;8.15;1.27;;;;;;;;;;5081079;28;20047;-64
2021/05/19 12:01:39;;;;;;;5.28;1.02;;;;;;;;;;5085575;28;20521;-64
2021/05/19 12:04:16;;;;;;;4.10;1.00;;;;;;;;;;5087188;28;20438;-64
2021/05/19 12:06:49;;;;;;;4.90;0.77;;;;;;;;;;5081709;28;20035;-64
2021/05/19 12:09:17;;;;;;;7.35;0.82;;;;;;;;;;5090567;28;20077;-64
2021/05/19 12:11:44;;;;;;;3.75;0.60;;;;;;;;;;5067580;28;20028;-64
2021/05/19 12:14:10;;;;;;;2.78;0.70;;;;;;;;;;5090907;28;20035;-64
2021/05/19 12:16:46;;;;;;;8.02;1.42;;;;;;;;;;5088919;28;20024;-64
2021/05/19 12:19:22;;;;;;;3.08;0.77;;;;;;;;;;5090395;28;20028;-64
2021/05/19 12:21:52;;;;;;;3.03;0.82;;;;;;;;;;5090533;28;20073;-65
2021/05/19 12:24:19;;;;;;;5.85;1.25;;;;;;;;;;5080385;28;20081;-64
2021/05/19 12:26:45;;;;;;;7.63;1.00;;;;;;;;;;5088559;28;20024;-65
2021/05/19 12:29:30;;;;;;;6.47;1.50;;;;;;;;;;5086777;28;20035;-65
2021/05/19 12:32:08;;;;;;;3.67;0.93;;;;;;;;;;5085473;28;20020;-65
2021/05/19 12:34:34;;;;;;;5.07;0.70;;;;;;;;;;5078517;28;20024;-66
2021/05/19 12:37:01;;;;;;;5.07;1.52;;;;;;;;;;5085309;28;20527;-65
2021/05/19 12:39:28;;;;;;;3.00;0.65;;;;;;;;;;5087197;28;20028;-65
2021/05/19 12:41:56;;;;;;;8.32;1.08;;;;;;;;;;5070891;28;20020;-66
2021/05/19 12:44:26;;;;;;;8.70;2.38;;;;;;;;;;5079145;28;20388;-65
2021/05/19 12:47:09;;;;;;;6.40;1.20;;;;;;;;;;5085920;28;20089;-66
2021/05/19 12:49:35;;;;;;;3.30;0.90;;;;;;;;;;5078891;28;20054;-65
2021/05/19 12:52:03;;;;;;;6.95;1.65;;;;;;;;;;5090708;28;20034;-66
2021/05/19 12:54:34;;;;;;;3.60;0.93;;;;;;;;;;5083125;28;20147;-66
2021/05/19 12:57:17;;;;;;;9.30;1.40;;;;;;;;;;5070416;28;20541;-65
2021/05/19 12:59:50;;;;;;;7.03;1.42;;;;;;;;;;5073881;28;20025;-65
2021/05/19 13:02:16;;;;;;;4.47;0.98;;;;;;;;;;5081887;28;20515;-66
2021/05/19 13:04:49;;;;;;;8.32;0.82;;;;;;;;;;5082218;28;20017;-65
2021/05/19 13:07:16;;;;;;;4.35;0.77;;;;;;;;;;5083156;28;20028;-66
2021/05/19 13:09:43;;;;;;;6.00;1.75;;;;;;;;;;5088954;28;20106;-66
2021/05/19 13:12:23;;;;;;;2.97;0.98;;;;;;;;;;5090334;28;20016;-65
2021/05/19 13:14:53;;;;;;;6.72;1.00;;;;;;;;;;5089533;28;20071;-66
2021/05/19 13:17:46;;;;;;;7.03;0.80;;;;;;;;;;5086738;28;20020;-66
2021/05/19 13:20:19;;;;;;;5.75;1.02;;;;;;;;;;5086795;28;20027;-66
2021/05/19 13:22:55;;;;;;;7.82;0.80;;;;;;;;;;5079917;28;20016;-66
2021/05/19 13:25:22;;;;;;;3.22;0.90;;;;;;;;;;5086518;28;20045;-66
2021/05/19 13:27:51;;;;;;;7.40;0.93;;;;;;;;;;5087034;28;20028;-66
2021/05/19 13:30:18;;;;;;;2.50;0.47;;;;;;;;;;5078156;28;20024;-66
2021/05/19 13:33:09;;;;;;;7.18;0.85;;;;;;;;;;5085633;28;20059;-66
2021/05/19 13:38:21;;;;;;;1.80;0.47;;;;;;;;;;5077537;28;20051;-67
2021/05/19 13:40:47;;;;;;;4.93;0.73;;;;;;;;;;5067971;28;20029;-67
2021/05/19 13:43:14;;;;;;;4.53;0.90;;;;;;;;;;5082061;28;20015;-67
2021/05/19 13:45:40;;;;;;;5.80;0.73;;;;;;;;;;5087164;28;20103;-66
2021/05/19 13:48:06;;;;;;;2.80;0.75;;;;;;;;;;5079772;28;20047;-67
2021/05/19 13:50:33;;;;;;;6.45;0.80;;;;;;;;;;5081963;28;20123;-66
2021/05/19 13:53:00;;;;;;;5.10;0.80;;;;;;;;;;5084196;28;20055;-66
2021/05/19 13:55:26;;;;;;;4.82;1.08;;;;;;;;;;5088063;28;20028;-66
2021/05/19 13:57:52;;;;;;;6.85;1.08;;;;;;;;;;5080511;28;20471;-66
2021/05/19 14:00:19;;;;;;;4.00;0.80;;;;;;;;;;5078513;28;20411;-66
2021/05/19 14:02:48;;;;;;;5.88;1.00;;;;;;;;;;5065712;28;20036;-66
2021/05/19 14:05:15;;;;;;;1.95;0.47;;;;;;;;;;5067475;28;20100;-67
2021/05/19 14:07:41;;;;;;;7.80;1.25;;;;;;;;;;5083529;28;20047;-67
2021/05/19 14:10:08;;;;;;;9.88;1.52;;;;;;;;;;5087801;28;20062;-67
2021/05/19 14:12:39;;;;;;;5.72;1.08;;;;;;;;;;5082910;28;20033;-67
2021/05/19 14:15:24;;;;;;;6.50;0.95;;;;;;;;;;5083374;28;20040;-66
2021/05/19 14:18:15;;;;;;;5.05;0.98;;;;;;;;;;5081585;28;20030;-66
2021/05/19 14:28:55;;;;;;;6.25;0.60;;;;;;;;;;5082452;28;20403;-66
2021/05/19 14:31:21;;;;;;;5.95;0.90;;;;;;;;;;5080542;28;20056;-67
2021/05/19 14:33:47;;;;;;;7.80;1.02;;;;;;;;;;5088983;28;20031;-67
2021/05/19 15:00:46;;;;;;;2.47;0.85;;;;;;;;;;5080268;28;20320;-66
2021/05/19 15:03:12;;;;;;;4.60;0.68;;;;;;;;;;5081051;28;20105;-67
2021/05/19 15:05:39;;;;;;;4.38;0.77;;;;;;;;;;5085457;28;20059;-67
2021/05/19 15:08:05;;;;;;;4.78;0.70;;;;;;;;;;5067507;28;20024;-68
2021/05/19 15:10:31;;;;;;;2.45;0.68;;;;;;;;;;5066241;28;20464;-67
2021/05/19 15:12:58;;;;;;;10.35;0.95;;;;;;;;;;5087402;28;20027;-68
2021/05/19 15:15:24;;;;;;;1.48;0.50;;;;;;;;;;5077140;28;20161;-68
2021/05/19 15:17:50;;;;;;;2.63;0.60;;;;;;;;;;5079031;28;20024;-68
2021/05/19 15:20:16;;;;;;;3.05;0.55;;;;;;;;;;5085357;28;20035;-68
2021/05/19 15:22:42;;;;;;;3.28;0.43;;;;;;;;;;5085726;28;20027;-69
2021/05/19 15:25:08;;;;;;;2.30;0.40;;;;;;;;;;5080877;28;20048;-69
2021/05/19 15:27:34;;;;;;;2.58;0.50;;;;;;;;;;5080724;28;20025;-68